sensor_id;sensor_type;location;lat;lon;timestamp;temperature;humidity
18906;DHT22;9585;51.018;4.282;2023-07-22T00:01:52;14.50;99.90
18906;DHT22;9585;51.018;4.282;2023-07-22T00:04:20;14.50;99.90
18906;DHT22;9585;51.018;4.282;2023-07-22T00:06:48;14.50;99.90
18906;DHT22;9585;51.018;4.282;2023-07-22T00:09:15;14.40;99.90
18906;DHT22;9585;51.018;4.282;2023-07-22T00:11:43;14.40;99.90
18906;DHT22;9585;51.018;4.282;2023-07-22T00:14:10;14.40;99.90
18906;DHT22;9585;51.018;4.282;2023-07-22T00:16:38;14.40;99.90
18906;DHT22;9585;51.018;4.282;2023-07-22T00:19:08;14.40;99.90
18906;DHT22;9585;51.018;4.282;2023-07-22T00:21:35;14.40;99.90
18906;DHT22;9585;51.018;4.282;2023-07-22T00:24:03;14.40;99.90
18906;DHT22;9585;51.018;4.282;2023-07-22T00:26:32;14.40;99.90
18906;DHT22;9585;51.018;4.282;2023-07-22T00:29:00;14.40;99.90
18906;DHT22;9585;51.018;4.282;2023-07-22T00:31:28;14.50;99.90
18906;DHT22;9585;51.018;4.282;2023-07-22T00:33:56;14.40;99.90
18906;DHT22;9585;51.018;4.282;2023-07-22T00:36:25;14.40;99.90
18906;DHT22;9585;51.018;4.282;2023-07-22T00:38:54;14.40;99.90
18906;DHT22;9585;51.018;4.282;2023-07-22T00:41:22;14.40;99.90
18906;DHT22;9585;51.018;4.282;2023-07-22T00:43:49;14.40;99.90
18906;DHT22;9585;51.018;4.282;2023-07-22T00:46:17;14.40;99.90
18906;DHT22;9585;51.018;4.282;2023-07-22T00:48:46;14.30;99.90
18906;DHT22;9585;51.018;4.282;2023-07-22T00:51:14;14.40;99.90
18906;DHT22;9585;51.018;4.282;2023-07-22T00:53:44;14.40;99.90
18906;DHT22;9585;51.018;4.282;2023-07-22T00:56:12;14.40;99.90
18906;DHT22;9585;51.018;4.282;2023-07-22T00:58:40;14.40;99.90
18906;DHT22;9585;51.018;4.282;2023-07-22T01:01:07;14.40;99.90
18906;DHT22;9585;51.018;4.282;2023-07-22T01:03:35;14.40;99.90
18906;DHT22;9585;51.018;4.282;2023-07-22T01:06:03;14.40;99.90
18906;DHT22;9585;51.018;4.282;2023-07-22T01:08:31;14.40;99.90
18906;DHT22;9585;51.018;4.282;2023-07-22T01:11:00;14.40;99.90
18906;DHT22;9585;51.018;4.282;2023-07-22T01:13:28;14.40;99.90
18906;DHT22;9585;51.018;4.282;2023-07-22T01:15:56;14.50;99.90
18906;DHT22;9585;51.018;4.282;2023-07-22T01:18:24;14.50;99.90
18906;DHT22;9585;51.018;4.282;2023-07-22T01:20:52;14.50;99.90
18906;DHT22;9585;51.018;4.282;2023-07-22T01:23:21;14.50;99.90
18906;DHT22;9585;51.018;4.282;2023-07-22T01:25:49;14.50;99.90
18906;DHT22;9585;51.018;4.282;2023-07-22T01:28:17;14.50;99.90
18906;DHT22;9585;51.018;4.282;2023-07-22T01:30:45;14.40;99.90
18906;DHT22;9585;51.018;4.282;2023-07-22T01:33:13;14.40;99.90
18906;DHT22;9585;51.018;4.282;2023-07-22T01:35:40;14.40;99.90
18906;DHT22;9585;51.018;4.282;2023-07-22T01:38:08;14.30;99.90
18906;DHT22;9585;51.018;4.282;2023-07-22T01:40:37;14.20;99.90
18906;DHT22;9585;51.018;4.282;2023-07-22T01:43:05;14.20;99.90
18906;DHT22;9585;51.018;4.282;2023-07-22T01:45:32;14.20;99.90
18906;DHT22;9585;51.018;4.282;2023-07-22T01:48:00;14.20;99.90
18906;DHT22;9585;51.018;4.282;2023-07-22T01:50:28;14.30;99.90
18906;DHT22;9585;51.018;4.282;2023-07-22T01:52:56;14.20;99.90
18906;DHT22;9585;51.018;4.282;2023-07-22T01:55:23;14.20;99.90
18906;DHT22;9585;51.018;4.282;2023-07-22T01:57:53;14.20;99.90
18906;DHT22;9585;51.018;4.282;2023-07-22T02:00:21;14.10;99.90
18906;DHT22;9585;51.018;4.282;2023-07-22T02:02:48;14.00;99.90
18906;DHT22;9585;51.018;4.282;2023-07-22T02:05:17;14.00;99.90
18906;DHT22;9585;51.018;4.282;2023-07-22T02:07:45;13.90;99.90
18906;DHT22;9585;51.018;4.282;2023-07-22T02:10:12;13.90;99.90
18906;DHT22;9585;51.018;4.282;2023-07-22T02:12:41;14.00;99.90
18906;DHT22;9585;51.018;4.282;2023-07-22T02:15:10;13.90;99.90
18906;DHT22;9585;51.018;4.282;2023-07-22T02:17:38;13.90;99.90
18906;DHT22;9585;51.018;4.282;2023-07-22T02:20:07;13.80;99.90
18906;DHT22;9585;51.018;4.282;2023-07-22T02:22:35;13.80;99.90
18906;DHT22;9585;51.018;4.282;2023-07-22T02:25:03;13.80;99.90
18906;DHT22;9585;51.018;4.282;2023-07-22T02:27:31;13.70;99.90
18906;DHT22;9585;51.018;4.282;2023-07-22T02:29:59;13.70;99.90
18906;DHT22;9585;51.018;4.282;2023-07-22T02:32:28;13.60;99.90
18906;DHT22;9585;51.018;4.282;2023-07-22T02:34:56;13.60;99.90
18906;DHT22;9585;51.018;4.282;2023-07-22T02:37:24;13.50;99.90
18906;DHT22;9585;51.018;4.282;2023-07-22T02:39:53;13.40;99.90
18906;DHT22;9585;51.018;4.282;2023-07-22T02:42:21;13.40;99.90
18906;DHT22;9585;51.018;4.282;2023-07-22T02:44:49;13.50;99.90
18906;DHT22;9585;51.018;4.282;2023-07-22T02:47:18;13.40;99.90
18906;DHT22;9585;51.018;4.282;2023-07-22T02:49:50;13.40;99.90
18906;DHT22;9585;51.018;4.282;2023-07-22T02:52:18;13.40;99.90
18906;DHT22;9585;51.018;4.282;2023-07-22T02:55:05;13.40;99.90
18906;DHT22;9585;51.018;4.282;2023-07-22T02:57:33;13.40;99.90
18906;DHT22;9585;51.018;4.282;2023-07-22T03:00:01;13.40;99.90
18906;DHT22;9585;51.018;4.282;2023-07-22T03:02:33;13.40;99.90
18906;DHT22;9585;51.018;4.282;2023-07-22T03:05:03;13.40;99.90
18906;DHT22;9585;51.018;4.282;2023-07-22T03:07:34;13.50;99.90
18906;DHT22;9585;51.018;4.282;2023-07-22T03:10:02;13.40;99.90
18906;DHT22;9585;51.018;4.282;2023-07-22T03:12:29;13.40;99.90
18906;DHT22;9585;51.018;4.282;2023-07-22T03:14:57;13.50;99.90
18906;DHT22;9585;51.018;4.282;2023-07-22T03:17:25;13.40;99.90
18906;DHT22;9585;51.018;4.282;2023-07-22T03:19:53;13.40;99.90
18906;DHT22;9585;51.018;4.282;2023-07-22T03:22:23;13.40;99.90
18906;DHT22;9585;51.018;4.282;2023-07-22T03:24:50;13.40;99.90
18906;DHT22;9585;51.018;4.282;2023-07-22T03:27:18;13.40;99.90
18906;DHT22;9585;51.018;4.282;2023-07-22T03:29:46;13.40;99.90
18906;DHT22;9585;51.018;4.282;2023-07-22T03:32:14;13.40;99.90
18906;DHT22;9585;51.018;4.282;2023-07-22T03:34:42;13.40;99.90
18906;DHT22;9585;51.018;4.282;2023-07-22T03:37:10;13.30;99.90
18906;DHT22;9585;51.018;4.282;2023-07-22T03:39:39;13.30;99.90
18906;DHT22;9585;51.018;4.282;2023-07-22T03:42:09;13.20;99.90
18906;DHT22;9585;51.018;4.282;2023-07-22T03:44:39;13.20;99.90
18906;DHT22;9585;51.018;4.282;2023-07-22T03:47:07;13.10;99.90
18906;DHT22;9585;51.018;4.282;2023-07-22T03:49:35;13.00;99.90
18906;DHT22;9585;51.018;4.282;2023-07-22T03:52:04;13.00;99.90
18906;DHT22;9585;51.018;4.282;2023-07-22T03:54:32;13.00;99.90
18906;DHT22;9585;51.018;4.282;2023-07-22T03:57:04;12.90;99.90
18906;DHT22;9585;51.018;4.282;2023-07-22T03:59:32;12.90;99.90
18906;DHT22;9585;51.018;4.282;2023-07-22T04:02:00;12.90;99.90
18906;DHT22;9585;51.018;4.282;2023-07-22T04:04:35;12.90;99.90
18906;DHT22;9585;51.018;4.282;2023-07-22T04:07:03;12.80;99.90
18906;DHT22;9585;51.018;4.282;2023-07-22T04:09:34;12.80;99.90
18906;DHT22;9585;51.018;4.282;2023-07-22T04:12:04;12.80;99.90
18906;DHT22;9585;51.018;4.282;2023-07-22T04:14:31;12.80;99.90
18906;DHT22;9585;51.018;4.282;2023-07-22T04:16:59;12.80;99.90
18906;DHT22;9585;51.018;4.282;2023-07-22T04:19:27;12.80;99.90
18906;DHT22;9585;51.018;4.282;2023-07-22T04:21:54;12.90;99.90
18906;DHT22;9585;51.018;4.282;2023-07-22T04:24:22;12.90;99.90
18906;DHT22;9585;51.018;4.282;2023-07-22T04:26:53;12.90;99.90
18906;DHT22;9585;51.018;4.282;2023-07-22T04:29:22;13.00;99.90
18906;DHT22;9585;51.018;4.282;2023-07-22T04:31:50;13.00;99.90
18906;DHT22;9585;51.018;4.282;2023-07-22T04:34:18;13.10;99.90
18906;DHT22;9585;51.018;4.282;2023-07-22T04:36:45;13.10;99.90
18906;DHT22;9585;51.018;4.282;2023-07-22T04:39:13;13.20;99.90
18906;DHT22;9585;51.018;4.282;2023-07-22T04:41:42;13.20;99.90
18906;DHT22;9585;51.018;4.282;2023-07-22T04:44:09;13.20;99.90
18906;DHT22;9585;51.018;4.282;2023-07-22T04:46:39;13.20;99.90
18906;DHT22;9585;51.018;4.282;2023-07-22T04:49:07;13.20;99.90
18906;DHT22;9585;51.018;4.282;2023-07-22T04:51:35;13.20;99.90
18906;DHT22;9585;51.018;4.282;2023-07-22T04:54:03;13.20;99.90
18906;DHT22;9585;51.018;4.282;2023-07-22T04:56:30;13.30;99.90
18906;DHT22;9585;51.018;4.282;2023-07-22T04:58:58;13.30;99.90
18906;DHT22;9585;51.018;4.282;2023-07-22T05:01:26;13.30;99.90
18906;DHT22;9585;51.018;4.282;2023-07-22T05:03:55;13.30;99.90
18906;DHT22;9585;51.018;4.282;2023-07-22T05:06:24;13.30;99.90
18906;DHT22;9585;51.018;4.282;2023-07-22T05:08:51;13.40;99.90
18906;DHT22;9585;51.018;4.282;2023-07-22T05:11:19;13.40;99.90
18906;DHT22;9585;51.018;4.282;2023-07-22T05:13:49;13.30;99.90
18906;DHT22;9585;51.018;4.282;2023-07-22T05:16:17;13.10;99.90
18906;DHT22;9585;51.018;4.282;2023-07-22T05:18:45;13.10;99.90
18906;DHT22;9585;51.018;4.282;2023-07-22T05:21:14;13.20;99.90
18906;DHT22;9585;51.018;4.282;2023-07-22T05:23:42;13.10;99.90
18906;DHT22;9585;51.018;4.282;2023-07-22T05:26:10;13.20;99.90
18906;DHT22;9585;51.018;4.282;2023-07-22T05:28:37;13.40;99.90
18906;DHT22;9585;51.018;4.282;2023-07-22T05:31:05;13.50;99.90
18906;DHT22;9585;51.018;4.282;2023-07-22T05:33:33;13.50;99.90
18906;DHT22;9585;51.018;4.282;2023-07-22T05:36:02;13.60;99.90
18906;DHT22;9585;51.018;4.282;2023-07-22T05:38:32;13.60;99.90
18906;DHT22;9585;51.018;4.282;2023-07-22T05:40:59;13.70;99.90
18906;DHT22;9585;51.018;4.282;2023-07-22T05:43:27;13.90;99.90
18906;DHT22;9585;51.018;4.282;2023-07-22T05:45:55;14.40;99.90
18906;DHT22;9585;51.018;4.282;2023-07-22T05:48:23;15.00;99.90
18906;DHT22;9585;51.018;4.282;2023-07-22T05:50:51;15.40;99.90
18906;DHT22;9585;51.018;4.282;2023-07-22T05:53:19;15.20;99.90
18906;DHT22;9585;51.018;4.282;2023-07-22T05:55:49;15.10;99.90
18906;DHT22;9585;51.018;4.282;2023-07-22T05:58:17;15.20;99.90
18906;DHT22;9585;51.018;4.282;2023-07-22T06:00:45;15.70;99.90
18906;DHT22;9585;51.018;4.282;2023-07-22T06:03:13;16.50;99.90
18906;DHT22;9585;51.018;4.282;2023-07-22T06:05:41;17.00;99.90
18906;DHT22;9585;51.018;4.282;2023-07-22T06:08:09;17.50;99.90
18906;DHT22;9585;51.018;4.282;2023-07-22T06:10:37;17.40;99.90
18906;DHT22;9585;51.018;4.282;2023-07-22T06:13:07;17.50;99.90
18906;DHT22;9585;51.018;4.282;2023-07-22T06:15:34;17.40;99.90
18906;DHT22;9585;51.018;4.282;2023-07-22T06:18:02;17.50;99.90
18906;DHT22;9585;51.018;4.282;2023-07-22T06:20:34;17.60;99.90
18906;DHT22;9585;51.018;4.282;2023-07-22T06:23:05;17.60;99.90
18906;DHT22;9585;51.018;4.282;2023-07-22T06:25:33;17.60;99.90
18906;DHT22;9585;51.018;4.282;2023-07-22T06:28:01;17.60;99.90
18906;DHT22;9585;51.018;4.282;2023-07-22T06:30:31;17.50;99.90
18906;DHT22;9585;51.018;4.282;2023-07-22T06:33:03;17.40;99.90
18906;DHT22;9585;51.018;4.282;2023-07-22T06:35:31;17.30;99.90
18906;DHT22;9585;51.018;4.282;2023-07-22T06:37:59;17.20;99.90
18906;DHT22;9585;51.018;4.282;2023-07-22T06:40:26;17.00;99.90
18906;DHT22;9585;51.018;4.282;2023-07-22T06:42:54;17.10;99.90
18906;DHT22;9585;51.018;4.282;2023-07-22T06:45:22;17.40;99.90
18906;DHT22;9585;51.018;4.282;2023-07-22T06:47:51;17.80;99.90
18906;DHT22;9585;51.018;4.282;2023-07-22T06:50:19;17.90;99.90
18906;DHT22;9585;51.018;4.282;2023-07-22T06:52:47;17.90;99.90
18906;DHT22;9585;51.018;4.282;2023-07-22T06:55:25;17.70;99.90
18906;DHT22;9585;51.018;4.282;2023-07-22T06:57:55;17.50;99.90
18906;DHT22;9585;51.018;4.282;2023-07-22T07:00:26;17.80;99.90
18906;DHT22;9585;51.018;4.282;2023-07-22T07:02:55;17.90;99.90
18906;DHT22;9585;51.018;4.282;2023-07-22T07:05:23;18.40;99.90
18906;DHT22;9585;51.018;4.282;2023-07-22T07:07:51;18.70;99.90
18906;DHT22;9585;51.018;4.282;2023-07-22T07:10:19;18.90;99.90
18906;DHT22;9585;51.018;4.282;2023-07-22T07:12:47;19.10;99.90
18906;DHT22;9585;51.018;4.282;2023-07-22T07:15:15;19.20;99.90
18906;DHT22;9585;51.018;4.282;2023-07-22T07:17:50;19.00;99.90
18906;DHT22;9585;51.018;4.282;2023-07-22T07:20:19;19.00;99.90
18906;DHT22;9585;51.018;4.282;2023-07-22T07:22:48;18.90;99.90
18906;DHT22;9585;51.018;4.282;2023-07-22T07:25:18;18.60;99.90
18906;DHT22;9585;51.018;4.282;2023-07-22T07:27:46;18.10;99.90
18906;DHT22;9585;51.018;4.282;2023-07-22T07:30:14;18.30;99.90
18906;DHT22;9585;51.018;4.282;2023-07-22T07:32:42;18.60;99.90
18906;DHT22;9585;51.018;4.282;2023-07-22T07:35:11;18.70;99.90
18906;DHT22;9585;51.018;4.282;2023-07-22T07:37:40;18.80;99.90
18906;DHT22;9585;51.018;4.282;2023-07-22T07:40:09;18.40;99.90
18906;DHT22;9585;51.018;4.282;2023-07-22T07:42:38;18.30;99.90
18906;DHT22;9585;51.018;4.282;2023-07-22T07:45:08;17.90;99.90
18906;DHT22;9585;51.018;4.282;2023-07-22T07:47:36;17.50;99.90
18906;DHT22;9585;51.018;4.282;2023-07-22T07:50:07;17.20;99.90
18906;DHT22;9585;51.018;4.282;2023-07-22T07:52:48;17.20;99.90
18906;DHT22;9585;51.018;4.282;2023-07-22T07:55:18;17.10;99.90
18906;DHT22;9585;51.018;4.282;2023-07-22T07:57:58;16.90;99.90
18906;DHT22;9585;51.018;4.282;2023-07-22T08:00:25;16.60;99.90
18906;DHT22;9585;51.018;4.282;2023-07-22T08:02:56;16.50;99.90
18906;DHT22;9585;51.018;4.282;2023-07-22T08:05:26;16.90;99.90
18906;DHT22;9585;51.018;4.282;2023-07-22T08:07:56;17.20;99.90
18906;DHT22;9585;51.018;4.282;2023-07-22T08:10:24;17.50;99.90
18906;DHT22;9585;51.018;4.282;2023-07-22T08:12:51;18.00;99.90
18906;DHT22;9585;51.018;4.282;2023-07-22T08:15:19;18.50;99.90
18906;DHT22;9585;51.018;4.282;2023-07-22T08:17:48;18.60;99.90
18906;DHT22;9585;51.018;4.282;2023-07-22T08:20:21;18.70;99.90
18906;DHT22;9585;51.018;4.282;2023-07-22T08:22:50;18.80;99.90
18906;DHT22;9585;51.018;4.282;2023-07-22T08:25:20;18.60;99.90
18906;DHT22;9585;51.018;4.282;2023-07-22T08:27:48;18.70;99.90
18906;DHT22;9585;51.018;4.282;2023-07-22T08:30:17;18.80;99.90
18906;DHT22;9585;51.018;4.282;2023-07-22T08:32:44;18.90;99.90
18906;DHT22;9585;51.018;4.282;2023-07-22T08:35:12;19.50;99.90
18906;DHT22;9585;51.018;4.282;2023-07-22T08:37:43;20.30;99.90
18906;DHT22;9585;51.018;4.282;2023-07-22T08:40:13;21.50;99.90
18906;DHT22;9585;51.018;4.282;2023-07-22T08:42:43;22.30;99.90
18906;DHT22;9585;51.018;4.282;2023-07-22T08:45:12;22.70;99.90
18906;DHT22;9585;51.018;4.282;2023-07-22T08:47:45;22.60;99.90
18906;DHT22;9585;51.018;4.282;2023-07-22T08:50:16;23.30;99.90
18906;DHT22;9585;51.018;4.282;2023-07-22T08:52:47;23.90;99.90
18906;DHT22;9585;51.018;4.282;2023-07-22T08:55:15;25.30;99.90
18906;DHT22;9585;51.018;4.282;2023-07-22T08:57:46;25.40;99.90
18906;DHT22;9585;51.018;4.282;2023-07-22T09:00:16;24.60;99.90
18906;DHT22;9585;51.018;4.282;2023-07-22T09:02:45;24.40;99.90
18906;DHT22;9585;51.018;4.282;2023-07-22T09:05:15;24.00;99.90
18906;DHT22;9585;51.018;4.282;2023-07-22T09:07:46;24.10;99.90
18906;DHT22;9585;51.018;4.282;2023-07-22T09:10:15;24.00;99.90
18906;DHT22;9585;51.018;4.282;2023-07-22T09:12:47;24.10;99.90
18906;DHT22;9585;51.018;4.282;2023-07-22T09:15:18;24.40;99.90
18906;DHT22;9585;51.018;4.282;2023-07-22T09:17:46;24.70;99.90
18906;DHT22;9585;51.018;4.282;2023-07-22T09:20:14;24.40;99.90
18906;DHT22;9585;51.018;4.282;2023-07-22T09:22:44;24.70;99.90
18906;DHT22;9585;51.018;4.282;2023-07-22T09:25:14;24.30;99.90
18906;DHT22;9585;51.018;4.282;2023-07-22T09:27:42;24.30;99.90
18906;DHT22;9585;51.018;4.282;2023-07-22T09:30:25;23.60;99.90
18906;DHT22;9585;51.018;4.282;2023-07-22T09:32:55;24.30;99.90
18906;DHT22;9585;51.018;4.282;2023-07-22T09:35:30;24.50;99.90
18906;DHT22;9585;51.018;4.282;2023-07-22T09:38:02;24.50;99.90
18906;DHT22;9585;51.018;4.282;2023-07-22T09:40:33;23.50;99.90
18906;DHT22;9585;51.018;4.282;2023-07-22T09:43:04;23.20;99.90
18906;DHT22;9585;51.018;4.282;2023-07-22T09:45:36;22.80;99.90
18906;DHT22;9585;51.018;4.282;2023-07-22T09:48:09;22.70;99.90
18906;DHT22;9585;51.018;4.282;2023-07-22T09:50:40;21.90;99.90
18906;DHT22;9585;51.018;4.282;2023-07-22T09:53:08;21.70;99.90
18906;DHT22;9585;51.018;4.282;2023-07-22T09:55:47;21.60;99.90
18906;DHT22;9585;51.018;4.282;2023-07-22T09:58:15;21.60;99.90
18906;DHT22;9585;51.018;4.282;2023-07-22T10:00:47;21.70;99.90
18906;DHT22;9585;51.018;4.282;2023-07-22T10:03:19;21.80;99.90
18906;DHT22;9585;51.018;4.282;2023-07-22T10:05:51;21.90;99.90
18906;DHT22;9585;51.018;4.282;2023-07-22T10:08:23;21.90;99.90
18906;DHT22;9585;51.018;4.282;2023-07-22T10:10:53;21.70;99.90
18906;DHT22;9585;51.018;4.282;2023-07-22T10:13:24;21.50;99.90
18906;DHT22;9585;51.018;4.282;2023-07-22T10:15:54;21.40;99.90
18906;DHT22;9585;51.018;4.282;2023-07-22T10:18:23;21.40;99.90
18906;DHT22;9585;51.018;4.282;2023-07-22T10:20:52;21.60;99.90
18906;DHT22;9585;51.018;4.282;2023-07-22T10:23:22;21.70;99.90
18906;DHT22;9585;51.018;4.282;2023-07-22T10:25:52;21.70;99.90
18906;DHT22;9585;51.018;4.282;2023-07-22T10:28:22;21.50;99.90
18906;DHT22;9585;51.018;4.282;2023-07-22T10:30:51;21.20;99.90
18906;DHT22;9585;51.018;4.282;2023-07-22T10:33:21;21.10;99.90
18906;DHT22;9585;51.018;4.282;2023-07-22T10:36:05;21.40;99.90
18906;DHT22;9585;51.018;4.282;2023-07-22T10:38:33;21.30;99.90
18906;DHT22;9585;51.018;4.282;2023-07-22T10:41:12;21.30;99.90
18906;DHT22;9585;51.018;4.282;2023-07-22T10:43:55;21.40;99.90
18906;DHT22;9585;51.018;4.282;2023-07-22T10:46:32;21.70;99.90
18906;DHT22;9585;51.018;4.282;2023-07-22T10:49:15;22.00;99.90
18906;DHT22;9585;51.018;4.282;2023-07-22T10:51:48;22.10;99.90
18906;DHT22;9585;51.018;4.282;2023-07-22T10:54:33;22.30;99.90
18906;DHT22;9585;51.018;4.282;2023-07-22T10:57:23;22.10;99.90
18906;DHT22;9585;51.018;4.282;2023-07-22T10:59:52;22.10;99.90
18906;DHT22;9585;51.018;4.282;2023-07-22T11:02:27;22.20;99.90
18906;DHT22;9585;51.018;4.282;2023-07-22T11:04:58;22.30;99.90
18906;DHT22;9585;51.018;4.282;2023-07-22T11:07:42;22.20;99.90
18906;DHT22;9585;51.018;4.282;2023-07-22T11:10:13;22.40;99.90
18906;DHT22;9585;51.018;4.282;2023-07-22T11:12:44;22.20;99.90
18906;DHT22;9585;51.018;4.282;2023-07-22T11:15:16;22.20;99.90
18906;DHT22;9585;51.018;4.282;2023-07-22T11:17:44;22.30;99.90
18906;DHT22;9585;51.018;4.282;2023-07-22T11:20:17;22.70;99.90
18906;DHT22;9585;51.018;4.282;2023-07-22T11:22:47;23.00;99.90
18906;DHT22;9585;51.018;4.282;2023-07-22T11:25:20;23.10;99.90
18906;DHT22;9585;51.018;4.282;2023-07-22T11:27:52;23.00;99.90
18906;DHT22;9585;51.018;4.282;2023-07-22T11:30:23;22.70;99.90
18906;DHT22;9585;51.018;4.282;2023-07-22T11:32:52;22.60;99.90
18906;DHT22;9585;51.018;4.282;2023-07-22T11:35:23;22.50;99.90
18906;DHT22;9585;51.018;4.282;2023-07-22T11:38:01;22.70;99.90
18906;DHT22;9585;51.018;4.282;2023-07-22T11:40:33;22.60;99.90
18906;DHT22;9585;51.018;4.282;2023-07-22T11:43:02;22.50;99.90
18906;DHT22;9585;51.018;4.282;2023-07-22T11:45:30;22.30;99.90
18906;DHT22;9585;51.018;4.282;2023-07-22T11:48:01;22.30;99.90
18906;DHT22;9585;51.018;4.282;2023-07-22T11:50:35;22.40;99.90
18906;DHT22;9585;51.018;4.282;2023-07-22T11:53:03;22.20;99.90
18906;DHT22;9585;51.018;4.282;2023-07-22T11:55:35;22.30;99.90
18906;DHT22;9585;51.018;4.282;2023-07-22T11:58:04;22.20;99.90
18906;DHT22;9585;51.018;4.282;2023-07-22T12:00:35;22.40;99.90
18906;DHT22;9585;51.018;4.282;2023-07-22T12:03:07;22.70;99.90
18906;DHT22;9585;51.018;4.282;2023-07-22T12:05:42;23.00;99.90
18906;DHT22;9585;51.018;4.282;2023-07-22T12:08:15;23.20;99.90
18906;DHT22;9585;51.018;4.282;2023-07-22T12:10:43;23.10;99.90
18906;DHT22;9585;51.018;4.282;2023-07-22T12:13:13;23.10;99.90
18906;DHT22;9585;51.018;4.282;2023-07-22T12:15:41;23.10;99.90
18906;DHT22;9585;51.018;4.282;2023-07-22T12:18:12;22.90;99.90
18906;DHT22;9585;51.018;4.282;2023-07-22T12:20:45;22.90;99.90
18906;DHT22;9585;51.018;4.282;2023-07-22T12:23:13;22.60;99.90
18906;DHT22;9585;51.018;4.282;2023-07-22T12:25:41;22.60;99.90
18906;DHT22;9585;51.018;4.282;2023-07-22T12:28:10;22.60;99.90
18906;DHT22;9585;51.018;4.282;2023-07-22T12:30:39;22.50;99.90
18906;DHT22;9585;51.018;4.282;2023-07-22T12:33:08;22.30;99.90
18906;DHT22;9585;51.018;4.282;2023-07-22T12:35:36;21.90;99.90
18906;DHT22;9585;51.018;4.282;2023-07-22T12:38:06;22.10;99.90
18906;DHT22;9585;51.018;4.282;2023-07-22T12:40:38;22.30;99.90
18906;DHT22;9585;51.018;4.282;2023-07-22T12:43:06;22.30;99.90
18906;DHT22;9585;51.018;4.282;2023-07-22T12:45:35;22.20;99.90
18906;DHT22;9585;51.018;4.282;2023-07-22T12:48:03;22.40;99.90
18906;DHT22;9585;51.018;4.282;2023-07-22T12:50:35;22.50;99.90
18906;DHT22;9585;51.018;4.282;2023-07-22T12:53:07;22.80;99.90
18906;DHT22;9585;51.018;4.282;2023-07-22T12:55:38;22.80;99.90
18906;DHT22;9585;51.018;4.282;2023-07-22T12:58:07;22.40;99.90
18906;DHT22;9585;51.018;4.282;2023-07-22T13:00:35;22.10;99.90
18906;DHT22;9585;51.018;4.282;2023-07-22T13:03:06;21.70;99.90
18906;DHT22;9585;51.018;4.282;2023-07-22T13:05:35;21.60;99.90
18906;DHT22;9585;51.018;4.282;2023-07-22T13:08:03;21.30;99.90
18906;DHT22;9585;51.018;4.282;2023-07-22T13:10:33;21.30;99.90
18906;DHT22;9585;51.018;4.282;2023-07-22T13:13:03;21.30;99.90
18906;DHT22;9585;51.018;4.282;2023-07-22T13:15:32;21.30;99.90
18906;DHT22;9585;51.018;4.282;2023-07-22T13:18:03;21.40;99.90
18906;DHT22;9585;51.018;4.282;2023-07-22T13:20:31;21.60;99.90
18906;DHT22;9585;51.018;4.282;2023-07-22T13:23:00;21.80;99.90
18906;DHT22;9585;51.018;4.282;2023-07-22T13:25:28;21.80;99.90
18906;DHT22;9585;51.018;4.282;2023-07-22T13:27:59;21.90;99.90
18906;DHT22;9585;51.018;4.282;2023-07-22T13:30:30;22.10;99.90
18906;DHT22;9585;51.018;4.282;2023-07-22T13:33:03;22.30;99.90
18906;DHT22;9585;51.018;4.282;2023-07-22T13:35:32;22.30;99.90
18906;DHT22;9585;51.018;4.282;2023-07-22T13:38:02;22.10;99.90
18906;DHT22;9585;51.018;4.282;2023-07-22T13:40:30;22.10;99.90
18906;DHT22;9585;51.018;4.282;2023-07-22T13:42:59;21.80;99.90
18906;DHT22;9585;51.018;4.282;2023-07-22T13:45:27;21.30;99.90
18906;DHT22;9585;51.018;4.282;2023-07-22T13:47:58;21.20;99.90
18906;DHT22;9585;51.018;4.282;2023-07-22T13:50:29;21.10;99.90
18906;DHT22;9585;51.018;4.282;2023-07-22T13:52:58;21.10;99.90
18906;DHT22;9585;51.018;4.282;2023-07-22T13:55:26;21.00;99.90
18906;DHT22;9585;51.018;4.282;2023-07-22T13:57:56;20.90;99.90
18906;DHT22;9585;51.018;4.282;2023-07-22T14:00:26;20.90;99.90
18906;DHT22;9585;51.018;4.282;2023-07-22T14:03:00;20.40;99.90
18906;DHT22;9585;51.018;4.282;2023-07-22T14:05:28;20.20;99.90
18906;DHT22;9585;51.018;4.282;2023-07-22T14:07:57;20.00;99.90
18906;DHT22;9585;51.018;4.282;2023-07-22T14:10:26;20.00;99.90
18906;DHT22;9585;51.018;4.282;2023-07-22T14:13:01;19.90;99.90
18906;DHT22;9585;51.018;4.282;2023-07-22T14:15:31;20.00;99.90
18906;DHT22;9585;51.018;4.282;2023-07-22T14:18:00;19.90;99.90
18906;DHT22;9585;51.018;4.282;2023-07-22T14:20:29;19.70;99.90
18906;DHT22;9585;51.018;4.282;2023-07-22T14:23:00;19.50;99.90
18906;DHT22;9585;51.018;4.282;2023-07-22T14:25:33;19.30;99.90
18906;DHT22;9585;51.018;4.282;2023-07-22T14:28:04;19.30;99.90
18906;DHT22;9585;51.018;4.282;2023-07-22T14:30:39;19.50;99.90
18906;DHT22;9585;51.018;4.282;2023-07-22T14:33:07;19.50;99.90
18906;DHT22;9585;51.018;4.282;2023-07-22T14:35:43;19.60;99.90
18906;DHT22;9585;51.018;4.282;2023-07-22T14:38:11;19.80;99.90
18906;DHT22;9585;51.018;4.282;2023-07-22T14:40:39;19.80;99.90
18906;DHT22;9585;51.018;4.282;2023-07-22T14:43:16;19.80;99.90
18906;DHT22;9585;51.018;4.282;2023-07-22T14:45:45;19.90;99.90
18906;DHT22;9585;51.018;4.282;2023-07-22T14:48:13;19.90;99.90
18906;DHT22;9585;51.018;4.282;2023-07-22T14:50:42;20.00;99.90
18906;DHT22;9585;51.018;4.282;2023-07-22T14:53:10;19.80;99.90
18906;DHT22;9585;51.018;4.282;2023-07-22T14:55:38;19.60;99.90
18906;DHT22;9585;51.018;4.282;2023-07-22T14:58:07;19.60;99.90
18906;DHT22;9585;51.018;4.282;2023-07-22T15:00:35;19.70;99.90
18906;DHT22;9585;51.018;4.282;2023-07-22T15:03:07;19.90;99.90
18906;DHT22;9585;51.018;4.282;2023-07-22T15:05:35;20.00;99.90
18906;DHT22;9585;51.018;4.282;2023-07-22T15:08:06;20.30;99.90
18906;DHT22;9585;51.018;4.282;2023-07-22T15:10:34;20.70;99.90
18906;DHT22;9585;51.018;4.282;2023-07-22T15:13:04;21.10;99.90
18906;DHT22;9585;51.018;4.282;2023-07-22T15:15:32;21.20;99.90
18906;DHT22;9585;51.018;4.282;2023-07-22T15:18:00;21.10;99.90
18906;DHT22;9585;51.018;4.282;2023-07-22T15:20:29;20.90;99.90
18906;DHT22;9585;51.018;4.282;2023-07-22T15:22:58;21.00;99.90
18906;DHT22;9585;51.018;4.282;2023-07-22T15:25:28;21.10;99.90
18906;DHT22;9585;51.018;4.282;2023-07-22T15:27:57;21.10;99.90
18906;DHT22;9585;51.018;4.282;2023-07-22T15:30:25;21.10;99.90
18906;DHT22;9585;51.018;4.282;2023-07-22T15:32:53;21.10;99.90
18906;DHT22;9585;51.018;4.282;2023-07-22T15:35:21;20.80;99.90
18906;DHT22;9585;51.018;4.282;2023-07-22T15:37:50;20.70;99.90
18906;DHT22;9585;51.018;4.282;2023-07-22T15:40:22;20.50;99.90
18906;DHT22;9585;51.018;4.282;2023-07-22T15:42:50;20.40;99.90
18906;DHT22;9585;51.018;4.282;2023-07-22T15:45:21;20.40;99.90
18906;DHT22;9585;51.018;4.282;2023-07-22T15:47:48;20.30;99.90
18906;DHT22;9585;51.018;4.282;2023-07-22T15:50:16;20.40;99.90
18906;DHT22;9585;51.018;4.282;2023-07-22T15:52:51;20.40;99.90
18906;DHT22;9585;51.018;4.282;2023-07-22T15:55:21;20.40;99.90
18906;DHT22;9585;51.018;4.282;2023-07-22T15:57:49;20.30;99.90
18906;DHT22;9585;51.018;4.282;2023-07-22T16:00:17;20.40;99.90